Time;durP1;ratioP1;P1;durP2;ratioP2;P2;SDS_P1;SDS_P2;PMS_P1;PMS_P2;Temp;Humidity;BMP_temperature;BMP_pressure;BME280_temperature;BME280_humidity;BME280_pressure;Samples;Min_cycle;Max_cycle;Signal;HPM_P1;HPM_P2
2022/01/06 00:01:54;;;;;;;20.30;2.38;;;3.10;99.90;;;;;;5091472;28;20436;-71
2022/01/06 00:04:20;;;;;;;20.73;2.03;;;3.00;99.90;;;;;;5087002;28;20048;-73
2022/01/06 00:06:45;;;;;;;23.25;2.22;;;3.00;99.90;;;;;;5077787;28;20454;-69
2022/01/06 00:09:18;;;;;;;20.58;2.33;;;3.10;99.90;;;;;;5077769;28;20581;-71
2022/01/06 00:11:44;;;;;;;;;;;3.20;99.90;;;;;;5096329;28;20040;-74
2022/01/06 00:14:38;;;;;;;12.70;1.98;;;3.20;99.90;;;;;;5106329;28;19968;-70
2022/01/06 00:17:21;;;;;;;24.63;2.92;;;3.20;99.90;;;;;;5090017;28;20031;-73
2022/01/06 00:25:15;;;;;;;34.97;2.83;;;3.20;99.90;;;;;;5094523;28;20085;-74
2022/01/06 00:27:41;;;;;;;30.42;4.32;;;3.20;99.90;;;;;;5071972;28;20036;-74
2022/01/06 00:30:07;;;;;;;32.85;3.25;;;3.10;99.90;;;;;;5086786;28;20078;-72
2022/01/06 00:32:32;;;;;;;31.05;3.38;;;3.10;99.90;;;;;;5089922;28;20047;-73
2022/01/06 00:34:58;;;;;;;38.60;4.38;;;3.10;99.90;;;;;;5088826;28;20481;-73
2022/01/06 00:37:24;;;;;;;29.80;3.53;;;3.00;99.90;;;;;;5083392;28;20036;-72
2022/01/06 00:39:49;;;;;;;35.80;3.33;;;2.90;99.90;;;;;;5069586;28;20036;-73
2022/01/06 00:42:16;;;;;;;51.30;4.15;;;2.80;99.90;;;;;;5086050;28;20396;-72
2022/01/06 00:44:42;;;;;;;43.08;3.90;;;2.80;99.90;;;;;;5074922;28;20391;-72
2022/01/06 00:47:48;;;;;;;42.08;3.40;;;2.70;99.90;;;;;;5077057;28;20093;-72
2022/01/06 00:50:14;;;;;;;31.90;3.58;;;2.70;99.90;;;;;;5087318;28;20670;-73
2022/01/06 00:52:39;;;;;;;38.22;3.28;;;2.70;99.90;;;;;;5088661;28;20067;-70
2022/01/06 00:55:05;;;;;;;25.10;3.65;;;2.70;99.90;;;;;;5089651;28;20395;-72
2022/01/06 00:57:31;;;;;;;24.58;3.40;;;2.80;99.90;;;;;;5089664;28;21354;-75
2022/01/06 00:59:56;;;;;;;38.15;3.67;;;2.90;99.90;;;;;;5089484;28;20160;-71
2022/01/06 01:02:22;;;;;;;36.72;4.00;;;3.10;99.90;;;;;;5088994;28;20044;-76
2022/01/06 01:04:48;;;;;;;16.52;2.58;;;3.10;99.90;;;;;;5069848;28;20040;-68
2022/01/06 01:07:15;;;;;;;51.45;4.85;;;3.20;99.90;;;;;;5070857;28;20049;-69
2022/01/06 01:09:40;;;;;;;23.83;3.53;;;3.20;99.90;;;;;;5087271;28;20040;-69
2022/01/06 01:12:06;;;;;;;39.00;3.00;;;3.20;99.90;;;;;;5077490;28;20379;-71
2022/01/06 01:14:52;;;;;;;42.60;4.50;;;3.30;99.90;;;;;;5077186;28;20036;-67
2022/01/06 01:17:24;;;;;;;31.58;2.83;;;3.20;99.90;;;;;;5089818;28;20328;-67
2022/01/06 01:19:49;;;;;;;52.38;5.45;;;3.20;99.90;;;;;;5094564;28;20079;-72
2022/01/06 01:22:15;;;;;;;46.63;4.25;;;3.20;99.90;;;;;;5076915;28;20074;-70
2022/01/06 01:24:40;;;;;;;44.20;4.47;;;3.10;99.90;;;;;;5077461;28;20376;-70
2022/01/06 01:27:07;;;;;;;51.92;5.15;;;3.00;99.90;;;;;;5088686;28;20082;-73
2022/01/06 01:29:40;;;;;;;42.08;4.50;;;2.90;99.90;;;;;;5088202;28;20063;-71
2022/01/06 01:32:06;;;;;;;33.60;3.83;;;2.90;99.90;;;;;;5071308;28;20131;-70
2022/01/06 01:34:32;;;;;;;35.13;4.60;;;2.90;99.90;;;;;;5088713;28;20127;-71
2022/01/06 01:36:58;;;;;;;43.42;5.25;;;2.90;99.90;;;;;;5089232;28;20048;-72
2022/01/06 01:39:25;;;;;;;39.00;5.53;;;2.80;99.90;;;;;;5075136;28;20036;-73
2022/01/06 01:41:51;;;;;;;45.30;5.00;;;2.90;99.90;;;;;;5089252;28;20067;-71
2022/01/06 01:44:19;;;;;;;46.33;4.78;;;2.90;99.90;;;;;;5083549;28;20044;-69
2022/01/06 01:46:58;;;;;;;31.60;4.45;;;2.80;99.90;;;;;;5089359;28;20520;-69
2022/01/06 01:51:50;;;;;;;34.38;3.40;;;2.80;99.90;;;;;;5093701;28;20441;-69
2022/01/06 01:54:16;;;;;;;36.20;3.15;;;2.80;99.90;;;;;;5092057;28;20398;-68
2022/01/06 01:56:42;;;;;;;40.80;4.70;;;2.80;99.90;;;;;;5094500;28;20046;-68
2022/01/06 01:59:08;;;;;;;38.08;4.07;;;2.80;99.90;;;;;;5096723;28;20059;-70
2022/01/06 02:01:33;;;;;;;39.20;4.63;;;2.70;99.90;;;;;;5076276;28;20075;-69
2022/01/06 02:03:59;;;;;;;31.65;3.58;;;2.80;99.90;;;;;;5075985;28;20039;-67
2022/01/06 02:06:24;;;;;;;44.85;4.03;;;2.70;99.90;;;;;;5089946;28;20036;-68
2022/01/06 02:08:51;;;;;;;37.90;3.70;;;2.70;99.90;;;;;;5080930;28;20383;-69
2022/01/06 02:11:17;;;;;;;36.47;5.57;;;2.70;99.90;;;;;;5097636;28;20035;-74
2022/01/06 02:13:52;;;;;;;36.15;4.18;;;2.70;99.90;;;;;;5084477;28;20040;-71
2022/01/06 02:16:24;;;;;;;26.25;2.92;;;2.70;99.90;;;;;;5098124;28;20032;-70
2022/01/06 02:18:50;;;;;;;34.67;3.17;;;2.70;99.90;;;;;;5086188;28;20513;-73
2022/01/06 02:21:17;;;;;;;43.15;3.80;;;2.60;99.90;;;;;;5089293;28;20508;-73
2022/01/06 02:23:43;;;;;;;44.13;2.92;;;2.60;99.90;;;;;;5087274;28;20076;-75
2022/01/06 02:26:08;;;;;;;40.35;3.25;;;2.60;99.90;;;;;;5091445;28;20044;-72
2022/01/06 02:28:34;;;;;;;32.72;3.53;;;2.70;99.90;;;;;;5091810;28;20479;-72
2022/01/06 02:31:00;;;;;;;43.97;4.13;;;2.60;99.90;;;;;;5075736;28;20048;-72
2022/01/06 02:33:27;;;;;;;41.10;3.85;;;2.50;99.90;;;;;;5087448;28;20033;-73
2022/01/06 02:35:54;;;;;;;33.50;3.45;;;2.60;99.90;;;;;;5090980;28;20139;-73
2022/01/06 02:38:20;;;;;;;33.55;3.63;;;2.50;99.90;;;;;;5087158;28;20068;-73
2022/01/06 02:40:47;;;;;;;34.97;2.63;;;2.50;99.90;;;;;;5087522;28;20040;-73
2022/01/06 02:43:16;;;;;;;38.53;3.83;;;2.50;99.90;;;;;;5090953;28;20032;-72
2022/01/06 02:45:43;;;;;;;40.33;3.30;;;2.50;99.90;;;;;;5091671;28;20327;-72
2022/01/06 02:48:09;;;;;;;47.95;5.35;;;2.40;99.90;;;;;;5080578;28;20131;-72
2022/01/06 02:50:37;;;;;;;38.38;3.53;;;2.40;99.90;;;;;;5067336;28;20131;-73
2022/01/06 02:53:04;;;;;;;41.40;3.67;;;2.30;99.90;;;;;;5091386;28;20043;-73
2022/01/06 02:55:31;;;;;;;34.15;4.00;;;2.30;99.90;;;;;;5089906;28;20032;-73
2022/01/06 02:57:57;;;;;;;32.15;3.20;;;2.30;99.90;;;;;;5091520;28;20127;-73
2022/01/06 03:00:22;;;;;;;31.80;3.28;;;2.20;99.90;;;;;;5071280;28;20159;-73
2022/01/06 03:02:48;;;;;;;35.90;3.60;;;2.10;99.90;;;;;;5103474;28;20044;-73
2022/01/06 03:05:16;;;;;;;49.08;5.40;;;2.00;99.90;;;;;;5086961;28;20124;-73
2022/01/06 03:07:42;;;;;;;31.40;2.90;;;1.90;99.90;;;;;;5079313;28;20429;-72
2022/01/06 03:10:12;;;;;;;31.55;3.25;;;1.90;99.90;;;;;;5089305;28;20145;-72
2022/01/06 03:12:40;;;;;;;40.85;4.53;;;1.80;99.90;;;;;;5098881;28;20119;-73
2022/01/06 03:15:07;;;;;;;24.30;3.58;;;1.80;99.90;;;;;;5090605;28;20032;-73
2022/01/06 03:17:33;;;;;;;27.73;3.38;;;1.80;99.90;;;;;;5091878;28;20371;-72
2022/01/06 03:19:59;;;;;;;37.63;4.97;;;1.70;99.90;;;;;;5091475;28;20047;-71
2022/01/06 03:22:25;;;;;;;29.60;3.15;;;1.80;99.90;;;;;;5090460;28;20043;-72
2022/01/06 03:24:50;;;;;;;29.20;5.00;;;1.80;99.90;;;;;;5091475;28;20062;-72
2022/01/06 03:27:16;;;;;;;35.60;3.17;;;1.80;99.90;;;;;;5074785;28;20036;-72
2022/01/06 03:29:41;;;;;;;27.40;3.88;;;1.80;99.90;;;;;;5087823;28;20046;-72
2022/01/06 03:32:07;;;;;;;33.38;3.25;;;1.80;99.90;;;;;;5091753;28;20036;-68
2022/01/06 03:34:32;;;;;;;31.15;2.90;;;1.80;99.90;;;;;;5088106;28;20387;-70
2022/01/06 03:37:00;;;;;;;39.47;4.38;;;1.90;99.90;;;;;;5093885;28;20050;-71
2022/01/06 03:39:26;;;;;;;22.77;3.10;;;1.90;99.90;;;;;;5068147;28;20181;-70
2022/01/06 03:41:51;;;;;;;31.80;3.20;;;1.90;99.90;;;;;;5083537;28;20153;-71
2022/01/06 03:44:18;;;;;;;34.60;3.17;;;1.90;99.90;;;;;;5091529;28;20118;-70
2022/01/06 03:46:44;;;;;;;23.05;2.58;;;1.80;99.90;;;;;;5105836;28;20039;-71
2022/01/06 03:49:09;;;;;;;29.60;3.97;;;1.90;99.90;;;;;;5085968;28;20466;-72
2022/01/06 03:51:35;;;;;;;36.58;3.60;;;1.90;99.90;;;;;;5079566;28;21757;-70
2022/01/06 03:54:00;;;;;;;35.15;4.63;;;1.90;99.90;;;;;;5066567;28;20039;-71
2022/01/06 03:56:26;;;;;;;33.50;3.13;;;1.90;99.90;;;;;;5093743;28;20064;-71
2022/01/06 03:58:51;;;;;;;30.80;3.25;;;1.80;99.90;;;;;;5067356;28;20554;-70
2022/01/06 04:01:17;;;;;;;43.63;4.55;;;1.80;99.90;;;;;;5073359;28;20039;-70
2022/01/06 04:03:45;;;;;;;27.30;2.88;;;1.80;99.90;;;;;;5074060;28;20386;-71
2022/01/06 04:06:11;;;;;;;27.85;3.00;;;1.80;99.90;;;;;;5090383;28;20075;-72
2022/01/06 04:08:37;;;;;;;40.55;3.55;;;1.80;99.90;;;;;;5088625;28;20086;-71
2022/01/06 04:11:03;;;;;;;36.72;3.63;;;1.80;99.90;;;;;;5089930;28;20077;-71
2022/01/06 04:13:29;;;;;;;35.30;3.55;;;1.80;99.90;;;;;;5091186;28;20360;-70
2022/01/06 04:15:54;;;;;;;31.95;3.97;;;1.80;99.90;;;;;;5088358;28;20123;-70
2022/01/06 04:18:20;;;;;;;27.38;3.55;;;1.90;99.90;;;;;;5090964;28;20469;-72
2022/01/06 04:20:46;;;;;;;45.53;3.88;;;1.90;99.90;;;;;;5073096;28;20122;-71
2022/01/06 04:23:11;;;;;;;30.15;3.17;;;1.90;99.90;;;;;;5090372;28;20044;-70
2022/01/06 04:25:37;;;;;;;41.38;4.93;;;1.90;99.90;;;;;;5084106;28;20040;-72
2022/01/06 04:28:03;;;;;;;37.63;3.60;;;1.90;99.90;;;;;;5087358;28;20066;-70
2022/01/06 04:30:28;;;;;;;40.17;3.10;;;1.90;99.90;;;;;;5087756;28;20046;-72
2022/01/06 04:32:54;;;;;;;23.90;2.53;;;1.80;99.90;;;;;;5106486;28;20127;-72
2022/01/06 04:35:19;;;;;;;44.35;3.97;;;1.80;99.90;;;;;;5089787;28;20044;-71
2022/01/06 04:37:45;;;;;;;32.72;3.25;;;1.80;99.90;;;;;;5090043;28;20444;-73
2022/01/06 04:40:11;;;;;;;34.20;4.10;;;1.80;99.90;;;;;;5086891;28;20047;-73
2022/01/06 04:42:36;;;;;;;40.88;4.28;;;1.70;99.90;;;;;;5090690;28;20498;-73
2022/01/06 04:45:03;;;;;;;44.50;3.40;;;1.60;99.90;;;;;;5088359;28;20181;-73
2022/01/06 04:47:28;;;;;;;33.25;3.47;;;1.60;99.90;;;;;;5090517;28;20044;-73
2022/01/06 04:49:54;;;;;;;35.83;3.80;;;1.50;99.90;;;;;;5089305;28;20047;-73
2022/01/06 04:52:19;;;;;;;31.52;2.90;;;1.50;99.90;;;;;;5089478;28;20036;-73
2022/01/06 04:54:45;;;;;;;43.00;4.35;;;1.50;99.90;;;;;;5087871;28;20085;-73
2022/01/06 04:57:10;;;;;;;32.15;3.88;;;1.50;99.90;;;;;;5086985;28;20043;-73
2022/01/06 04:59:36;;;;;;;36.28;3.45;;;1.50;99.90;;;;;;5088079;28;20582;-73
2022/01/06 05:02:03;;;;;;;30.73;4.13;;;1.40;99.90;;;;;;5069857;28;20125;-74
2022/01/06 05:04:28;;;;;;;33.63;3.28;;;1.50;99.90;;;;;;5100296;28;20092;-73
2022/01/06 05:06:54;;;;;;;42.50;3.92;;;1.50;99.90;;;;;;5081841;28;20048;-74
2022/01/06 05:09:19;;;;;;;33.70;4.18;;;1.40;99.90;;;;;;5082120;28;20047;-74
2022/01/06 05:11:45;;;;;;;37.05;4.10;;;1.40;99.90;;;;;;5098800;28;20369;-73
2022/01/06 05:14:10;;;;;;;45.00;4.10;;;1.40;99.90;;;;;;5099385;28;20073;-73
2022/01/06 05:16:36;;;;;;;33.70;2.75;;;1.40;99.90;;;;;;5083559;28;20115;-74
2022/01/06 05:19:02;;;;;;;26.95;3.22;;;1.40;99.90;;;;;;5072960;28;20038;-74
2022/01/06 05:21:30;;;;;;;41.58;4.63;;;1.40;99.90;;;;;;5079202;28;20032;-73
2022/01/06 05:23:56;;;;;;;47.90;4.70;;;1.30;99.90;;;;;;5089396;28;20037;-74
2022/01/06 05:26:22;;;;;;;34.80;2.95;;;1.30;99.90;;;;;;5095059;28;20123;-74
2022/01/06 05:28:48;;;;;;;40.22;3.80;;;1.30;99.90;;;;;;5103157;28;20134;-74
2022/01/06 05:31:13;;;;;;;44.95;4.40;;;1.30;99.90;;;;;;5089039;28;20071;-74
2022/01/06 05:33:39;;;;;;;34.13;3.90;;;1.30;99.90;;;;;;5089075;28;20070;-75
2022/01/06 05:36:05;;;;;;;36.95;4.38;;;1.30;99.90;;;;;;5087749;28;20406;-75
2022/01/06 05:38:30;;;;;;;33.00;4.40;;;1.30;99.90;;;;;;5073351;28;20043;-75
2022/01/06 05:40:56;;;;;;;42.15;4.57;;;1.30;99.90;;;;;;5083110;28;20063;-75
2022/01/06 05:43:22;;;;;;;35.47;4.43;;;1.20;99.90;;;;;;5100767;28;20032;-75
2022/01/06 05:45:55;;;;;;;40.92;4.45;;;1.20;99.90;;;;;;5080841;28;20044;-75
2022/01/06 05:48:21;;;;;;;45.67;4.60;;;1.10;99.90;;;;;;5086487;28;20517;-74
2022/01/06 05:50:51;;;;;;;32.92;3.58;;;1.10;99.90;;;;;;5089267;28;20036;-74
2022/01/06 05:53:17;;;;;;;40.03;4.72;;;1.10;99.90;;;;;;5088988;28;20118;-75
2022/01/06 05:55:43;;;;;;;42.00;3.50;;;1.10;99.90;;;;;;5085140;28;20471;-75
2022/01/06 05:58:09;;;;;;;33.25;4.15;;;1.10;99.90;;;;;;5080014;28;20139;-74
2022/01/06 06:00:34;;;;;;;37.35;3.65;;;1.20;99.90;;;;;;5062461;28;20044;-76
2022/01/06 06:03:00;;;;;;;41.55;4.53;;;1.10;99.90;;;;;;5092827;28;20428;-76
2022/01/06 06:05:26;;;;;;;39.63;4.22;;;1.10;99.90;;;;;;5102552;28;20036;-76
2022/01/06 06:07:51;;;;;;;45.33;4.47;;;1.00;99.90;;;;;;5091341;28;20040;-76
2022/01/06 06:10:17;;;;;;;51.42;4.22;;;1.00;99.90;;;;;;5069177;28;20398;-76
2022/01/06 06:12:42;;;;;;;54.17;6.35;;;0.90;99.90;;;;;;5072313;28;20028;-75
2022/01/06 06:15:08;;;;;;;45.90;5.15;;;0.90;99.90;;;;;;5089101;28;20039;-77
2022/01/06 06:17:34;;;;;;;40.35;4.32;;;0.80;99.90;;;;;;5089088;28;20044;-76
2022/01/06 06:19:59;;;;;;;54.47;5.32;;;0.70;99.90;;;;;;5088731;28;20097;-76
2022/01/06 06:22:25;;;;;;;56.45;5.88;;;0.60;99.90;;;;;;5088908;28;20089;-77
2022/01/06 06:24:50;;;;;;;52.78;4.95;;;0.60;99.90;;;;;;5089629;28;20549;-76
2022/01/06 06:27:16;;;;;;;45.63;5.90;;;0.60;99.90;;;;;;5079726;28;20040;-76
2022/01/06 06:29:41;;;;;;;49.13;5.47;;;0.60;99.90;;;;;;5083427;28;20413;-76
2022/01/06 06:32:07;;;;;;;43.22;4.85;;;0.50;99.90;;;;;;5089100;28;20028;-75
2022/01/06 06:34:33;;;;;;;48.83;4.80;;;0.40;99.90;;;;;;5090544;28;20036;-76
2022/01/06 06:36:58;;;;;;;51.78;5.60;;;0.40;99.90;;;;;;5090015;28;20071;-75
2022/01/06 06:39:24;;;;;;;47.38;6.13;;;0.40;99.90;;;;;;5087179;28;20424;-75
2022/01/06 06:41:49;;;;;;;29.25;3.40;;;0.40;99.90;;;;;;5070572;28;20621;-75
2022/01/06 06:44:15;;;;;;;43.70;4.78;;;0.40;99.90;;;;;;5089196;28;20062;-75
2022/01/06 06:46:40;;;;;;;41.10;4.18;;;0.60;99.90;;;;;;5087206;28;20047;-74
2022/01/06 06:49:06;;;;;;;40.33;4.43;;;0.50;99.90;;;;;;5063644;28;20044;-74
2022/01/06 06:51:31;;;;;;;35.08;3.92;;;0.60;99.90;;;;;;5074752;28;20071;-76
2022/01/06 06:53:57;;;;;;;46.67;4.68;;;0.60;99.90;;;;;;5082268;28;20036;-76
2022/01/06 06:56:22;;;;;;;31.40;3.75;;;0.70;99.90;;;;;;5099807;28;20040;-77
2022/01/06 06:58:48;;;;;;;39.95;3.70;;;0.70;99.90;;;;;;5089050;28;20051;-76
2022/01/06 07:01:14;;;;;;;46.55;3.83;;;0.70;99.90;;;;;;5092068;28;20067;-75
2022/01/06 07:03:39;;;;;;;38.67;3.72;;;0.70;99.90;;;;;;5092598;28;20035;-76
2022/01/06 07:06:05;;;;;;;29.48;3.85;;;0.70;99.90;;;;;;5092170;28;20464;-76
2022/01/06 07:08:30;;;;;;;36.85;4.20;;;0.80;99.90;;;;;;5091921;28;20028;-78
2022/01/06 07:10:57;;;;;;;43.58;5.35;;;0.70;99.90;;;;;;5088822;28;20044;-76
2022/01/06 07:13:23;;;;;;;52.30;4.05;;;0.70;99.90;;;;;;5091553;28;20036;-77
2022/01/06 07:15:48;;;;;;;34.80;4.93;;;0.70;99.90;;;;;;5082882;28;20046;-76
2022/01/06 07:18:14;;;;;;;47.35;4.43;;;0.80;99.90;;;;;;5080961;28;20066;-77
2022/01/06 07:20:40;;;;;;;38.40;3.88;;;0.70;99.90;;;;;;5091127;28;20411;-76
2022/01/06 07:23:06;;;;;;;43.38;3.58;;;0.70;99.90;;;;;;5092608;28;20486;-77
2022/01/06 07:25:31;;;;;;;37.65;3.35;;;0.70;99.90;;;;;;5090966;28;20039;-77
2022/01/06 07:27:57;;;;;;;53.53;4.30;;;0.70;99.90;;;;;;5060819;28;20422;-77
2022/01/06 07:30:24;;;;;;;37.00;4.10;;;0.70;99.90;;;;;;5100936;28;20123;-77
2022/01/06 07:32:50;;;;;;;41.70;3.30;;;0.70;99.90;;;;;;5091745;28;20040;-77
2022/01/06 07:35:19;;;;;;;34.47;3.72;;;0.70;99.90;;;;;;5091243;28;20427;-77
2022/01/06 07:37:46;;;;;;;46.88;4.03;;;0.70;99.90;;;;;;5092149;28;20105;-76
2022/01/06 07:40:13;;;;;;;36.47;4.13;;;0.70;99.90;;;;;;5090020;28;20092;-76
2022/01/06 07:42:38;;;;;;;37.00;4.55;;;0.70;99.90;;;;;;5082515;28;20072;-77
2022/01/06 07:45:05;;;;;;;29.90;4.10;;;0.70;99.90;;;;;;5074300;28;20062;-75
2022/01/06 07:47:32;;;;;;;50.63;4.35;;;0.70;99.90;;;;;;5091565;28;20063;-76
2022/01/06 07:49:59;;;;;;;36.35;4.30;;;0.80;99.90;;;;;;5092043;28;20071;-76
2022/01/06 07:52:25;;;;;;;37.63;6.15;;;0.80;99.90;;;;;;5085359;28;20039;-77
2022/01/06 07:54:50;;;;;;;39.85;4.70;;;0.80;99.90;;;;;;5099441;28;20739;-75
2022/01/06 07:57:16;;;;;;;47.10;4.93;;;0.90;99.90;;;;;;5074331;28;20040;-75
2022/01/06 07:59:42;;;;;;;51.28;5.45;;;0.90;99.90;;;;;;5089034;28;20147;-75
2022/01/06 08:02:08;;;;;;;44.95;4.53;;;0.90;99.90;;;;;;5086013;28;20050;-76
2022/01/06 08:04:35;;;;;;;44.50;5.65;;;0.90;99.90;;;;;;5090032;28;20068;-76
2022/01/06 08:07:01;;;;;;;42.72;4.63;;;1.00;99.90;;;;;;5082970;28;20047;-76
2022/01/06 08:09:26;;;;;;;58.10;6.22;;;1.00;99.90;;;;;;5077995;28;20036;-75
2022/01/06 08:11:52;;;;;;;40.50;4.78;;;1.00;99.90;;;;;;5090176;28;20063;-75
2022/01/06 08:14:17;;;;;;;45.75;5.15;;;1.00;99.90;;;;;;5074274;28;20040;-76
2022/01/06 08:16:43;;;;;;;55.28;6.07;;;1.00;99.90;;;;;;5073595;28;20121;-75
2022/01/06 08:19:08;;;;;;;65.75;6.45;;;1.00;99.90;;;;;;5073965;28;20526;-75
2022/01/06 08:21:34;;;;;;;54.97;5.57;;;1.00;99.90;;;;;;5090416;28;20034;-75
2022/01/06 08:24:00;;;;;;;59.85;5.88;;;0.90;99.90;;;;;;5078024;28;20071;-75
2022/01/06 08:26:25;;;;;;;45.13;5.07;;;1.00;99.90;;;;;;5091039;28;20060;-76
2022/01/06 08:28:51;;;;;;;55.83;5.18;;;1.00;99.90;;;;;;5080793;28;20056;-76
2022/01/06 08:31:16;;;;;;;50.35;6.25;;;0.90;99.90;;;;;;5092857;28;20491;-75
2022/01/06 08:33:42;;;;;;;47.78;5.20;;;1.00;99.90;;;;;;5071575;28;20036;-75
2022/01/06 08:36:08;;;;;;;45.63;5.68;;;1.00;99.90;;;;;;5086541;28;20101;-75
2022/01/06 08:38:33;;;;;;;40.35;5.30;;;1.00;99.90;;;;;;5090431;28;20048;-76
2022/01/06 08:40:59;;;;;;;44.88;4.75;;;1.10;99.90;;;;;;5090322;28;20100;-75
2022/01/06 08:43:27;;;;;;;39.67;5.10;;;1.00;99.90;;;;;;5089521;28;20043;-75
2022/01/06 08:45:59;;;;;;;47.33;6.22;;;1.00;99.90;;;;;;5090030;28;20466;-75
2022/01/06 08:48:25;;;;;;;41.63;4.80;;;1.00;99.90;;;;;;5089998;28;20060;-75
2022/01/06 08:50:51;;;;;;;44.97;5.65;;;0.90;99.90;;;;;;5073314;28;20036;-75
2022/01/06 08:53:16;;;;;;;46.25;6.22;;;0.90;99.90;;;;;;5084939;28;20399;-75
2022/01/06 08:55:46;;;;;;;49.58;6.30;;;0.90;99.90;;;;;;5094456;28;20042;-75
2022/01/06 08:58:13;;;;;;;46.47;7.30;;;1.00;99.90;;;;;;5089649;28;20483;-75
2022/01/06 09:00:39;;;;;;;46.50;6.65;;;1.10;99.90;;;;;;5090107;28;20450;-75
2022/01/06 09:03:06;;;;;;;39.40;6.20;;;1.10;99.90;;;;;;5085985;28;20076;-76
2022/01/06 09:05:33;;;;;;;51.08;5.85;;;1.20;99.90;;;;;;5091882;28;20508;-76
2022/01/06 09:07:59;;;;;;;51.20;6.93;;;1.20;99.90;;;;;;5090052;28;20040;-76
2022/01/06 09:10:29;;;;;;;38.67;5.55;;;1.20;99.90;;;;;;5056309;28;20363;-76
2022/01/06 09:12:55;;;;;;;55.60;7.15;;;1.30;99.90;;;;;;5074341;28;20046;-75
2022/01/06 09:15:21;;;;;;;41.33;6.57;;;1.30;99.90;;;;;;5073977;28;20029;-75
2022/01/06 09:17:46;;;;;;;46.70;6.75;;;1.30;99.90;;;;;;5071964;28;20093;-75
2022/01/06 09:20:12;;;;;;;46.70;6.78;;;1.30;99.90;;;;;;5070998;28;20050;-76
2022/01/06 09:22:38;;;;;;;53.40;7.55;;;1.30;99.90;;;;;;5071676;28;20470;-75
2022/01/06 09:25:04;;;;;;;47.78;8.27;;;1.40;99.90;;;;;;5089492;28;20039;-75
2022/01/06 09:27:30;;;;;;;49.63;7.13;;;1.40;99.90;;;;;;5069939;28;20089;-75
2022/01/06 09:29:56;;;;;;;50.92;7.60;;;1.40;99.90;;;;;;5064703;28;20055;-75
2022/01/06 09:32:22;;;;;;;39.40;6.78;;;1.50;99.90;;;;;;5093922;28;20050;-75
2022/01/06 09:34:47;;;;;;;34.65;6.07;;;1.50;99.90;;;;;;5102175;28;20036;-75
2022/01/06 09:37:13;;;;;;;60.25;7.00;;;1.60;99.90;;;;;;5081095;28;20088;-75
2022/01/06 09:39:40;;;;;;;41.25;6.38;;;1.60;99.90;;;;;;5084911;28;20044;-75
2022/01/06 09:42:05;;;;;;;37.72;5.90;;;1.70;99.90;;;;;;5081951;28;20051;-75
2022/01/06 09:44:31;;;;;;;40.72;6.03;;;1.80;99.90;;;;;;5093714;28;20036;-75
2022/01/06 09:46:57;;;;;;;40.17;6.90;;;1.80;99.90;;;;;;5069985;28;20040;-75
2022/01/06 09:49:23;;;;;;;48.65;6.82;;;1.80;99.90;;;;;;5086193;28;20098;-75
2022/01/06 09:51:51;;;;;;;38.22;6.55;;;1.90;99.90;;;;;;5104441;28;20046;-75
2022/01/06 09:54:17;;;;;;;41.15;6.20;;;1.90;99.90;;;;;;5074851;28;20394;-76
2022/01/06 09:56:43;;;;;;;49.30;6.50;;;2.00;99.90;;;;;;5084973;28;20436;-76
2022/01/06 09:59:09;;;;;;;49.58;6.50;;;2.10;99.90;;;;;;5086219;28;20047;-76
2022/01/06 10:01:34;;;;;;;50.40;6.97;;;2.20;99.90;;;;;;5084845;28;20481;-76
2022/01/06 10:04:00;;;;;;;46.63;6.35;;;2.20;99.90;;;;;;5081395;28;20407;-76
2022/01/06 10:06:27;;;;;;;52.40;7.13;;;2.30;99.90;;;;;;5067380;28;20411;-76
2022/01/06 10:08:59;;;;;;;36.75;6.65;;;2.30;99.90;;;;;;5089071;28;20035;-77
2022/01/06 10:11:28;;;;;;;47.90;8.15;;;2.40;99.90;;;;;;5091158;28;20043;-75
2022/01/06 10:13:56;;;;;;;44.92;6.18;;;2.50;99.90;;;;;;5085579;28;20043;-76
2022/01/06 10:16:23;;;;;;;42.70;6.88;;;2.60;99.90;;;;;;5109597;28;20028;-76
2022/01/06 10:19:06;;;;;;;47.05;6.45;;;2.60;99.90;;;;;;5096009;28;20474;-76
2022/01/06 10:21:36;;;;;;;45.80;7.00;;;2.70;99.90;;;;;;5111328;28;20101;-76
2022/01/06 10:24:08;;;;;;;37.90;6.80;;;2.80;99.90;;;;;;5111724;28;20039;-77
2022/01/06 10:26:35;;;;;;;39.33;6.30;;;2.80;99.90;;;;;;5087333;28;20222;-75
2022/01/06 10:29:02;;;;;;;51.30;7.38;;;2.90;99.90;;;;;;5089154;28;20036;-76
2022/01/06 10:31:30;;;;;;;45.58;6.70;;;3.00;99.90;;;;;;5087807;28;20032;-75
2022/01/06 10:33:56;;;;;;;41.33;7.07;;;3.00;99.90;;;;;;5092226;28;20047;-75
2022/01/06 10:36:30;;;;;;;35.90;6.30;;;3.10;99.90;;;;;;5091469;28;20032;-75
2022/01/06 10:38:58;;;;;;;37.28;6.03;;;3.10;99.90;;;;;;5084723;28;20458;-76
2022/01/06 10:41:27;;;;;;;44.13;6.40;;;3.20;99.90;;;;;;5108553;28;20094;-76
2022/01/06 10:43:57;;;;;;;37.28;6.18;;;3.20;99.90;;;;;;5092333;28;20040;-75
2022/01/06 10:46:41;;;;;;;43.08;7.72;;;3.30;99.90;;;;;;5100235;28;20040;-75
2022/01/06 10:49:08;;;;;;;42.05;7.30;;;3.40;99.90;;;;;;5089911;28;20435;-76
2022/01/06 10:51:37;;;;;;;40.40;6.40;;;3.40;99.90;;;;;;5086284;28;20092;-75
2022/01/06 10:54:04;;;;;;;40.40;7.30;;;3.50;99.90;;;;;;5089294;28;20032;-75
2022/01/06 10:56:30;;;;;;;39.53;7.05;;;3.50;99.90;;;;;;5088114;28;20079;-75
2022/01/06 10:58:59;;;;;;;42.85;6.82;;;3.60;99.90;;;;;;5090197;28;20490;-75
2022/01/06 11:01:24;;;;;;;57.55;7.18;;;3.60;99.90;;;;;;5087463;28;20125;-75
2022/01/06 11:03:50;;;;;;;47.72;6.93;;;3.70;99.90;;;;;;5090451;28;20478;-74
2022/01/06 11:06:16;;;;;;;50.58;7.22;;;3.80;99.90;;;;;;5089731;28;20512;-73
2022/01/06 11:08:43;;;;;;;46.83;6.68;;;3.80;99.90;;;;;;5089792;28;20028;-75
2022/01/06 11:13:44;;;;;;;46.83;6.75;;;3.90;99.90;;;;;;5088695;28;20098;-74
2022/01/06 11:16:13;;;;;;;32.25;6.35;;;4.00;99.90;;;;;;5089920;28;20075;-73
2022/01/06 11:18:42;;;;;;;48.38;7.70;;;4.00;99.90;;;;;;5072697;28;20391;-74
2022/01/06 11:21:11;;;;;;;45.92;6.82;;;4.00;99.90;;;;;;5087481;28;20047;-76
2022/01/06 11:23:36;;;;;;;38.78;7.13;;;4.10;99.90;;;;;;5075579;28;20043;-74
2022/01/06 11:26:31;;;;;;;52.10;8.45;;;4.10;99.90;;;;;;5065097;28;20043;-74
2022/01/06 11:28:59;;;;;;;50.53;8.18;;;4.30;99.90;;;;;;5074179;28;20396;-73
2022/01/06 11:31:28;;;;;;;57.20;9.10;;;4.30;99.90;;;;;;5090628;28;20181;-72
2022/01/06 11:33:56;;;;;;;46.28;7.85;;;4.30;99.90;;;;;;5085249;28;20048;-73
2022/01/06 11:36:31;;;;;;;54.85;9.20;;;4.40;99.90;;;;;;5090466;28;20123;-73
2022/01/06 11:38:58;;;;;;;41.55;7.88;;;4.40;99.90;;;;;;5084780;28;20040;-73
2022/01/06 11:41:36;;;;;;;44.20;7.75;;;4.50;99.90;;;;;;5090479;28;20099;-69
2022/01/06 11:44:02;;;;;;;50.83;7.57;;;4.60;99.90;;;;;;5090426;28;20040;-69
2022/01/06 11:46:44;;;;;;;41.83;7.97;;;4.70;99.90;;;;;;5089303;28;20068;-68
2022/01/06 11:49:10;;;;;;;42.53;7.68;;;4.80;99.90;;;;;;5087789;28;20048;-70
2022/01/06 11:51:37;;;;;;;40.60;6.85;;;4.90;99.90;;;;;;5081884;28;20142;-69
2022/01/06 11:54:32;;;;;;;43.38;7.00;;;5.00;99.90;;;;;;5073098;28;20090;-69
2022/01/06 11:56:58;;;;;;;44.83;6.97;;;5.10;99.90;;;;;;5059109;28;20457;-72
2022/01/06 11:59:32;;;;;;;47.53;7.53;;;5.10;99.90;;;;;;5074487;28;20032;-72
2022/01/06 12:01:58;;;;;;;49.42;7.18;;;5.10;99.90;;;;;;5088722;28;20032;-71
2022/01/06 12:04:27;;;;;;;50.15;7.35;;;5.20;99.90;;;;;;5082053;28;20431;-72
2022/01/06 12:07:07;;;;;;;42.55;7.22;;;5.20;99.90;;;;;;5092270;28;20529;-72
2022/01/06 12:09:32;;;;;;;44.08;6.78;;;5.30;99.90;;;;;;5091293;28;20495;-72
2022/01/06 12:11:59;;;;;;;37.58;6.10;;;5.40;99.90;;;;;;5091473;28;20072;-74
2022/01/06 12:14:26;;;;;;;48.47;6.63;;;5.40;99.90;;;;;;5088482;28;20040;-71
2022/01/06 12:16:51;;;;;;;42.15;5.90;;;5.50;99.90;;;;;;5088073;28;20044;-72
2022/01/06 12:19:19;;;;;;;36.35;6.03;;;5.50;99.90;;;;;;5085651;28;20032;-72
2022/01/06 12:21:47;;;;;;;35.28;6.90;;;5.60;99.90;;;;;;5090336;28;20046;-72
2022/01/06 12:24:14;;;;;;;38.72;5.53;;;5.50;99.90;;;;;;5091028;28;20036;-72
2022/01/06 12:26:40;;;;;;;35.33;5.95;;;5.60;99.90;;;;;;5091487;28;20040;-71
2022/01/06 12:29:27;;;;;;;34.95;6.65;;;5.60;99.90;;;;;;5090638;28;20042;-72
2022/01/06 12:32:08;;;;;;;46.38;7.18;;;5.60;99.90;;;;;;5091841;28;20046;-73
2022/01/06 12:34:34;;;;;;;32.22;5.57;;;5.60;99.90;;;;;;5076806;28;20120;-71
2022/01/06 12:36:59;;;;;;;50.67;7.43;;;5.60;99.90;;;;;;5080980;28;20462;-72
2022/01/06 12:39:25;;;;;;;42.78;6.55;;;5.60;99.90;;;;;;5086985;28;20040;-72
2022/01/06 12:41:51;;;;;;;38.47;6.13;;;5.50;99.90;;;;;;5087833;28;20399;-72
2022/01/06 12:44:24;;;;;;;42.33;6.80;;;5.60;99.90;;;;;;5070313;28;20037;-71
2022/01/06 12:46:50;;;;;;;45.03;7.47;;;5.60;99.90;;;;;;5086914;28;20072;-71
2022/01/06 12:49:16;;;;;;;55.67;7.15;;;5.60;99.90;;;;;;5054095;28;20090;-73
2022/01/06 12:51:44;;;;;;;46.13;7.50;;;5.60;99.90;;;;;;5086776;28;20041;-71
2022/01/06 12:54:13;;;;;;;46.72;6.57;;;5.60;99.90;;;;;;5070230;28;20044;-72
2022/01/06 12:56:44;;;;;;;51.17;6.38;;;5.70;99.90;;;;;;5070346;28;20463;-71
2022/01/06 12:59:11;;;;;;;42.72;6.68;;;5.70;99.90;;;;;;5069267;28;20087;-72